MA63 weather

Sherman-Private Airport
Pembroke, Massachusetts, United States

Public forecast

Using degrees Fahrenheit for public forecast. Weather courtesy of forecast.io.

METAR (pilot weather report)

Closest report is Marshfield Municipal George Harlow Field, 5.8 nm (10.7 km) ENE. Retrieved 2019/07/20 04:35 UTC (0 seconds ago):

KGHG 200435Z AUTO 24005KT 10SM CLR 26/25 A2977 RMK AO2

TAF (pilot weather forecast)

Forecast is more than 12 hours old.

Closest forecast is General Edward Lawrence Logan International Airport, 19.7 nm (36.5 km) NNW. Retrieved 2019/07/19 00:37 UTC (1 day ago):

TAF KBOS 192328Z 2000/2106 24010KT P6SM FEW060 FM200600 26008KT P6SM FEW060 FM201500 24011KT P6SM FEW050 FM202300 24006KT P6SM FEW050